createdAt,value
2023-01-19T00:01:41.777Z,3.68
2023-01-19T00:04:41.767Z,3.66
2023-01-19T00:07:41.776Z,3.69
2023-01-19T00:10:41.804Z,3.69
2023-01-19T00:13:41.772Z,3.68
2023-01-19T00:16:41.781Z,3.68
2023-01-19T00:19:41.781Z,3.71
2023-01-19T00:22:41.796Z,3.71
2023-01-19T00:25:41.803Z,3.73
2023-01-19T00:28:41.818Z,3.73
2023-01-19T00:31:41.854Z,3.72
2023-01-19T00:34:41.806Z,3.73
2023-01-19T00:37:41.818Z,3.73
2023-01-19T00:40:41.822Z,3.74
2023-01-19T00:43:41.825Z,3.74
2023-01-19T00:46:41.852Z,3.76
2023-01-19T00:49:41.831Z,3.76
2023-01-19T00:52:41.847Z,3.78
2023-01-19T00:55:41.849Z,3.78
2023-01-19T00:58:41.853Z,3.78
2023-01-19T01:01:44.785Z,3.78
2023-01-19T01:04:41.875Z,3.78
2023-01-19T01:07:41.915Z,3.78
2023-01-19T01:10:41.863Z,3.78
2023-01-19T01:13:41.862Z,3.78
2023-01-19T01:16:41.940Z,3.79
2023-01-19T01:19:41.890Z,3.79
2023-01-19T01:22:41.895Z,3.77
2023-01-19T01:25:41.886Z,3.78
2023-01-19T01:28:41.887Z,3.78
2023-01-19T01:31:41.975Z,3.76
2023-01-19T01:34:41.888Z,3.77
2023-01-19T01:37:41.893Z,3.77
2023-01-19T01:40:42.063Z,3.78
2023-01-19T01:43:41.905Z,3.78
2023-01-19T01:46:41.906Z,3.78
2023-01-19T01:49:41.909Z,3.82
2023-01-19T01:52:41.916Z,3.81
2023-01-19T01:55:41.927Z,3.83
2023-01-19T01:58:41.947Z,3.83
2023-01-19T02:01:42.091Z,3.83
2023-01-19T02:04:41.939Z,3.86
2023-01-19T02:07:41.944Z,3.85
2023-01-19T02:10:41.958Z,3.88
2023-01-19T02:13:41.943Z,3.87
2023-01-19T02:16:41.994Z,3.86
2023-01-19T02:19:41.981Z,3.86
2023-01-19T02:22:41.969Z,3.89
2023-01-19T02:25:41.979Z,3.88
2023-01-19T02:28:41.972Z,3.89
2023-01-19T02:31:41.976Z,3.89
2023-01-19T02:34:42.014Z,3.88
2023-01-19T02:37:41.992Z,3.89
2023-01-19T02:40:41.991Z,3.91
2023-01-19T02:43:41.996Z,3.9
2023-01-19T02:46:41.995Z,3.91
2023-01-19T02:49:41.996Z,3.89
2023-01-19T02:52:42.030Z,3.92
2023-01-19T02:55:42.007Z,3.91
2023-01-19T02:58:42.017Z,3.93
2023-01-19T03:01:42.130Z,3.92
2023-01-19T03:04:42.059Z,3.94
2023-01-19T03:07:42.033Z,3.94
2023-01-19T03:10:42.065Z,3.93
2023-01-19T03:13:42.042Z,3.93
2023-01-19T03:16:42.083Z,3.94
2023-01-19T03:19:42.042Z,3.93
2023-01-19T03:22:42.053Z,3.96
2023-01-19T03:25:42.051Z,3.96
2023-01-19T03:28:42.079Z,3.96
2023-01-19T03:31:42.065Z,3.95
2023-01-19T03:34:42.062Z,3.95
2023-01-19T03:37:42.070Z,3.95
2023-01-19T03:40:42.073Z,3.95
2023-01-19T03:43:42.077Z,3.95
2023-01-19T03:46:42.113Z,3.95
2023-01-19T03:49:42.082Z,3.96
2023-01-19T03:52:42.090Z,3.96
2023-01-19T03:55:42.095Z,3.96
2023-01-19T03:58:42.098Z,3.97
2023-01-19T04:01:42.201Z,3.96
2023-01-19T04:04:42.134Z,3.97
2023-01-19T04:07:42.104Z,3.97
2023-01-19T04:10:42.106Z,3.97
2023-01-19T04:13:42.111Z,3.97
2023-01-19T04:16:42.111Z,3.98
2023-01-19T04:19:42.124Z,3.95
2023-01-19T04:22:42.143Z,3.98
2023-01-19T04:25:42.126Z,3.98
2023-01-19T04:28:42.139Z,3.95
2023-01-19T04:31:42.132Z,3.98
2023-01-19T04:34:42.131Z,3.95
2023-01-19T04:37:42.138Z,3.95
2023-01-19T04:40:42.168Z,3.97
2023-01-19T04:43:42.150Z,3.97
2023-01-19T04:46:42.192Z,3.97
2023-01-19T04:49:42.163Z,3.99
2023-01-19T04:52:42.166Z,3.98
2023-01-19T04:55:42.172Z,3.98
2023-01-19T04:58:42.270Z,3.98
2023-01-19T05:01:42.206Z,3.98
2023-01-19T05:04:42.178Z,3.98
2023-01-19T05:07:42.181Z,3.96
2023-01-19T05:10:42.185Z,3.96
2023-01-19T05:13:42.192Z,3.98
2023-01-19T05:16:42.218Z,3.98
2023-01-19T05:19:42.207Z,3.98
2023-01-19T05:22:42.209Z,3.96
2023-01-19T05:25:42.212Z,3.96
2023-01-19T05:28:42.206Z,3.97
2023-01-19T05:31:42.252Z,3.97
2023-01-19T05:34:42.241Z,3.97
2023-01-19T05:37:42.210Z,3.97
2023-01-19T05:40:42.224Z,3.97
2023-01-19T05:43:42.250Z,3.99
2023-01-19T05:46:42.314Z,3.99
2023-01-19T05:49:42.237Z,4.01
2023-01-19T05:52:42.255Z,3.98
2023-01-19T05:55:42.237Z,3.99
2023-01-19T05:58:42.237Z,3.99
2023-01-19T06:01:42.294Z,3.99
2023-01-19T06:04:42.255Z,4
2023-01-19T06:07:42.248Z,3.98
2023-01-19T06:10:42.272Z,3.98
2023-01-19T06:13:42.336Z,3.98
2023-01-19T06:16:42.321Z,3.98
2023-01-19T06:19:42.260Z,3.98
2023-01-19T06:22:42.262Z,3.98
2023-01-19T06:25:42.260Z,4
2023-01-19T06:28:42.285Z,3.99
2023-01-19T06:31:42.337Z,3.99
2023-01-19T06:34:42.271Z,3.99
2023-01-19T06:37:42.271Z,4
2023-01-19T06:40:42.272Z,4
2023-01-19T06:43:42.275Z,4.02
2023-01-19T06:46:42.352Z,4.04
2023-01-19T06:49:42.286Z,4.04
2023-01-19T06:52:42.459Z,4.05
2023-01-19T06:55:42.277Z,4.05
2023-01-19T06:58:42.285Z,4.05
2023-01-19T07:01:42.380Z,4.07
2023-01-19T07:04:42.315Z,4.07
2023-01-19T07:07:42.290Z,4.08
2023-01-19T07:11:21.707Z,4.08
2023-01-19T07:13:42.292Z,4.07
2023-01-19T07:16:42.372Z,4.1
2023-01-19T07:19:42.314Z,4.11
2023-01-19T07:22:42.357Z,4.1
2023-01-19T07:25:42.335Z,4.1
2023-01-19T07:28:42.345Z,4.1
2023-01-19T07:31:42.514Z,4.1
2023-01-19T07:34:42.375Z,4.1
2023-01-19T07:37:42.368Z,4.12
2023-01-19T07:40:42.418Z,4.11
2023-01-19T07:43:42.401Z,4.14
2023-01-19T07:46:42.406Z,4.15
2023-01-19T07:49:42.407Z,4.19
2023-01-19T07:52:42.408Z,4.19
2023-01-19T07:55:42.415Z,4.2
2023-01-19T07:58:42.459Z,4.23
2023-01-19T08:01:42.593Z,4.24
2023-01-19T08:04:42.437Z,4.28
2023-01-19T08:07:42.433Z,4.29
2023-01-19T08:10:42.448Z,4.27
2023-01-19T08:13:42.449Z,4.27
2023-01-19T08:16:42.481Z,4.26
2023-01-19T08:19:42.464Z,4.27
2023-01-19T08:22:42.459Z,4.25
2023-01-19T08:25:42.464Z,4.25
2023-01-19T08:28:42.474Z,4.28
2023-01-19T08:31:42.618Z,4.28
2023-01-19T08:34:42.512Z,4.28
2023-01-19T08:37:42.484Z,4.28
2023-01-19T08:40:42.487Z,4.28
2023-01-19T08:43:42.490Z,4.29
2023-01-19T08:46:42.549Z,4.27
2023-01-19T08:49:42.502Z,4.24
2023-01-19T08:52:42.622Z,4.27
2023-01-19T08:55:42.520Z,4.27
2023-01-19T08:58:42.521Z,4.25
2023-01-19T09:01:42.643Z,4.28
2023-01-19T09:04:42.523Z,4.29
2023-01-19T09:07:42.523Z,4.36
2023-01-19T09:10:42.553Z,4.36
2023-01-19T09:13:42.540Z,4.42
2023-01-19T09:16:42.544Z,4.47
2023-01-19T09:19:42.540Z,4.51
2023-01-19T09:22:42.587Z,4.55
2023-01-19T09:25:42.555Z,4.51
2023-01-19T09:28:42.587Z,4.51
2023-01-19T09:31:42.584Z,4.54
2023-01-19T09:34:42.572Z,4.55
2023-01-19T09:37:42.574Z,4.58
2023-01-19T09:40:42.586Z,4.54
2023-01-19T09:43:42.588Z,4.58
2023-01-19T09:46:42.750Z,4.58
2023-01-19T09:49:42.589Z,4.47
2023-01-19T09:52:42.586Z,4.47
2023-01-19T09:55:42.598Z,4.47
2023-01-19T09:58:42.604Z,4.48
2023-01-19T10:01:42.632Z,4.5
2023-01-19T10:04:42.644Z,4.48
2023-01-19T10:07:42.615Z,4.47
2023-01-19T10:10:42.619Z,4.43
2023-01-19T10:13:42.630Z,4.43
2023-01-19T10:16:42.628Z,4.43
2023-01-19T10:19:43.185Z,4.42
2023-01-19T10:22:42.676Z,4.43
2023-01-19T10:25:42.663Z,4.44
2023-01-19T10:28:42.646Z,4.44
2023-01-19T10:31:42.718Z,4.42
2023-01-19T10:34:42.665Z,4.43
2023-01-19T10:37:42.658Z,4.44
2023-01-19T10:40:42.701Z,4.44
2023-01-19T10:43:42.686Z,4.42
2023-01-19T10:46:42.680Z,4.47
2023-01-19T10:49:42.753Z,4.43
2023-01-19T10:52:42.682Z,4.44
2023-01-19T10:55:42.710Z,4.44
2023-01-19T10:58:42.708Z,4.44
2023-01-19T11:01:42.798Z,4.45
2023-01-19T11:04:42.719Z,4.46
2023-01-19T11:07:42.695Z,4.48
2023-01-19T11:10:42.697Z,4.49
2023-01-19T11:13:42.708Z,4.46
2023-01-19T11:16:42.808Z,4.47
2023-01-19T11:19:42.712Z,4.47
2023-01-19T11:22:42.727Z,4.48
2023-01-19T11:25:42.725Z,4.5
2023-01-19T11:28:44.960Z,4.52
2023-01-19T11:31:42.746Z,4.52
2023-01-19T11:34:42.773Z,4.51
2023-01-19T11:37:42.736Z,4.52
2023-01-19T11:40:42.743Z,4.52
2023-01-19T11:43:48.900Z,4.53
2023-01-19T11:46:42.745Z,4.54
2023-01-19T11:49:42.756Z,4.55
2023-01-19T11:52:43.180Z,4.56
2023-01-19T11:55:42.773Z,4.59
2023-01-19T11:58:42.767Z,4.61
2023-01-19T12:01:42.774Z,4.62
2023-01-19T12:04:42.778Z,4.64
2023-01-19T12:07:42.777Z,4.62
2023-01-19T12:10:42.810Z,4.67
2023-01-19T12:13:42.787Z,4.67
2023-01-19T12:16:42.820Z,4.67
2023-01-19T12:19:42.801Z,4.69
2023-01-19T12:22:42.796Z,4.68
2023-01-19T12:25:42.797Z,4.69
2023-01-19T12:28:42.830Z,4.72
2023-01-19T12:31:43.145Z,4.68
2023-01-19T12:34:42.809Z,4.69
2023-01-19T12:37:42.818Z,4.68
2023-01-19T12:40:42.815Z,4.72
2023-01-19T12:43:42.821Z,4.72
2023-01-19T12:46:42.859Z,4.7
2023-01-19T12:49:42.834Z,4.69
2023-01-19T12:52:42.841Z,4.7
2023-01-19T12:55:42.838Z,4.69
2023-01-19T12:58:42.847Z,4.71
2023-01-19T13:01:43.003Z,4.71
2023-01-19T13:04:42.886Z,4.69
2023-01-19T13:07:42.860Z,4.7
2023-01-19T13:10:42.866Z,4.68
2023-01-19T13:13:42.874Z,4.68
2023-01-19T13:16:42.874Z,4.69
2023-01-19T13:19:42.875Z,4.7
2023-01-19T13:22:42.963Z,4.7
2023-01-19T13:25:42.902Z,4.7
2023-01-19T13:28:42.894Z,4.7
2023-01-19T13:31:42.962Z,4.75
2023-01-19T13:34:42.903Z,4.73
2023-01-19T13:37:42.927Z,4.74
2023-01-19T13:40:42.928Z,4.75
2023-01-19T13:43:42.916Z,4.76
2023-01-19T13:46:42.977Z,4.76
2023-01-19T13:49:42.918Z,4.74
2023-01-19T13:52:42.924Z,4.77
2023-01-19T13:55:42.926Z,4.75
2023-01-19T13:58:43.026Z,4.75
2023-01-19T14:01:43.148Z,4.78
2023-01-19T14:04:42.958Z,4.77
2023-01-19T14:07:42.976Z,4.8
2023-01-19T14:10:42.944Z,4.79
2023-01-19T14:13:42.955Z,4.82
2023-01-19T14:16:42.984Z,4.86
2023-01-19T14:19:42.976Z,4.86
2023-01-19T14:22:42.969Z,4.91
2023-01-19T14:25:42.974Z,4.91
2023-01-19T14:28:42.974Z,4.91
2023-01-19T14:31:43.073Z,4.94
2023-01-19T14:34:43.131Z,4.94
2023-01-19T14:37:42.989Z,4.95
2023-01-19T14:40:42.998Z,4.95
2023-01-19T14:43:43.010Z,4.94
2023-01-19T14:46:43.092Z,4.94
2023-01-19T14:49:43.008Z,4.93
2023-01-19T14:52:43.065Z,4.98
2023-01-19T14:55:43.018Z,4.93
2023-01-19T14:58:43.020Z,4.92
2023-01-19T15:01:43.185Z,4.93
2023-01-19T15:04:43.036Z,4.94
2023-01-19T15:07:43.035Z,4.95
2023-01-19T15:10:43.061Z,4.96
2023-01-19T15:13:43.043Z,4.96
2023-01-19T15:16:43.060Z,4.94
2023-01-19T15:19:43.063Z,4.94
2023-01-19T15:22:43.060Z,4.95
2023-01-19T15:25:43.058Z,4.96
2023-01-19T15:28:43.092Z,4.97
2023-01-19T15:31:43.152Z,4.97
2023-01-19T15:34:43.075Z,4.98
2023-01-19T15:37:43.072Z,4.97
2023-01-19T15:40:43.077Z,4.99
2023-01-19T15:43:43.084Z,4.99
2023-01-19T15:46:43.109Z,4.99
2023-01-19T15:49:43.108Z,4.99
2023-01-19T15:52:43.091Z,5
2023-01-19T15:55:43.109Z,4.99
2023-01-19T15:58:43.111Z,5
2023-01-19T16:01:43.195Z,5
2023-01-19T16:04:43.142Z,5
2023-01-19T16:07:43.168Z,4.97
2023-01-19T16:10:43.144Z,5.01
2023-01-19T16:13:43.123Z,5.01
2023-01-19T16:16:43.171Z,5.01
2023-01-19T16:19:43.182Z,5.01
2023-01-19T16:22:43.158Z,5.01
2023-01-19T16:25:43.155Z,5.01
2023-01-19T16:28:43.149Z,5.02
2023-01-19T16:31:43.208Z,5.02
2023-01-19T16:34:43.179Z,5.01
2023-01-19T16:37:43.160Z,5.01
2023-01-19T16:40:43.183Z,5.05
2023-01-19T16:43:43.170Z,5.05
2023-01-19T16:46:43.176Z,5.05
2023-01-19T16:49:43.189Z,5.04
2023-01-19T16:52:43.173Z,5.04
2023-01-19T16:55:43.179Z,5
2023-01-19T16:58:43.205Z,5.01
2023-01-19T17:01:43.273Z,4.97
2023-01-19T17:04:43.200Z,4.97
2023-01-19T17:07:43.206Z,4.95
2023-01-19T17:10:43.273Z,4.91
2023-01-19T17:13:43.200Z,4.85
2023-01-19T17:16:43.247Z,4.87
2023-01-19T17:19:43.220Z,4.85
2023-01-19T17:22:43.214Z,4.88
2023-01-19T17:25:43.214Z,4.84
2023-01-19T17:28:43.225Z,4.83
2023-01-19T17:31:43.307Z,4.82
2023-01-19T17:34:43.269Z,4.79
2023-01-19T17:37:43.243Z,4.78
2023-01-19T17:40:43.245Z,4.82
2023-01-19T17:43:43.247Z,4.8
2023-01-19T17:46:43.255Z,4.81
2023-01-19T17:49:43.278Z,4.81
2023-01-19T17:52:43.283Z,4.81
2023-01-19T17:55:43.278Z,4.78
2023-01-19T17:58:43.270Z,4.81
2023-01-19T18:01:43.386Z,4.82
2023-01-19T18:04:43.305Z,4.82
2023-01-19T18:07:43.279Z,4.81
2023-01-19T18:10:43.308Z,4.77
2023-01-19T18:13:43.291Z,4.77
2023-01-19T18:16:43.292Z,4.78
2023-01-19T18:19:43.304Z,4.78
2023-01-19T18:22:43.302Z,4.78
2023-01-19T18:25:43.308Z,4.74
2023-01-19T18:28:43.332Z,4.74
2023-01-19T18:31:43.376Z,4.74
2023-01-19T18:34:43.327Z,4.74
2023-01-19T18:37:43.336Z,4.75
2023-01-19T18:40:43.329Z,4.74
2023-01-19T18:43:43.327Z,4.7
2023-01-19T18:46:43.447Z,4.71
2023-01-19T18:49:43.354Z,4.71
2023-01-19T18:52:43.388Z,4.74
2023-01-19T18:55:43.336Z,4.71
2023-01-19T18:58:43.338Z,4.7
2023-01-19T19:01:43.437Z,4.7
2023-01-19T19:04:43.380Z,4.72
2023-01-19T19:07:43.348Z,4.72
2023-01-19T19:10:43.367Z,4.69
2023-01-19T19:13:43.354Z,4.68
2023-01-19T19:16:43.359Z,4.64
2023-01-19T19:19:43.368Z,4.64
2023-01-19T19:22:43.387Z,4.64
2023-01-19T19:25:43.371Z,4.65
2023-01-19T19:28:43.390Z,4.64
2023-01-19T19:31:43.441Z,4.64
2023-01-19T19:34:43.389Z,4.64
2023-01-19T19:37:43.379Z,4.64
2023-01-19T19:40:43.499Z,4.63
2023-01-19T19:43:43.387Z,4.63
2023-01-19T19:46:43.405Z,4.63
2023-01-19T19:49:43.404Z,4.62
2023-01-19T19:52:43.400Z,4.62
2023-01-19T19:55:43.394Z,4.62
2023-01-19T19:58:43.422Z,4.6
2023-01-19T20:01:43.549Z,4.59
2023-01-19T20:04:43.469Z,4.55
2023-01-19T20:07:43.409Z,4.55
2023-01-19T20:10:43.411Z,4.52
2023-01-19T20:13:43.413Z,4.52
2023-01-19T20:16:43.448Z,4.54
2023-01-19T20:19:43.428Z,4.55
2023-01-19T20:22:43.418Z,4.56
2023-01-19T20:25:43.427Z,4.55
2023-01-19T20:28:43.424Z,4.55
2023-01-19T20:31:43.517Z,4.54
2023-01-19T20:34:43.454Z,4.55
2023-01-19T20:37:43.427Z,4.54
2023-01-19T20:40:43.441Z,4.54
2023-01-19T20:43:43.439Z,4.54
2023-01-19T20:46:43.446Z,4.51
2023-01-19T20:49:43.479Z,4.51
2023-01-19T20:52:43.467Z,4.51
2023-01-19T20:55:43.447Z,4.48
2023-01-19T20:58:43.449Z,4.51
2023-01-19T21:01:43.745Z,4.52
2023-01-19T21:04:43.467Z,4.52
2023-01-19T21:07:43.452Z,4.51
2023-01-19T21:10:43.473Z,4.51
2023-01-19T21:13:43.457Z,4.48
2023-01-19T21:16:43.523Z,4.45
2023-01-19T21:19:43.480Z,4.44
2023-01-19T21:22:43.455Z,4.46
2023-01-19T21:25:43.462Z,4.46
2023-01-19T21:28:43.486Z,4.42
2023-01-19T21:31:43.585Z,4.42
2023-01-19T21:34:43.472Z,4.43
2023-01-19T21:37:43.469Z,4.43
2023-01-19T21:40:43.478Z,4.44
2023-01-19T21:43:43.515Z,4.44
2023-01-19T21:46:43.522Z,4.43
2023-01-19T21:49:43.493Z,4.4
2023-01-19T21:52:43.491Z,4.39
2023-01-19T21:55:43.496Z,4.4
2023-01-19T21:58:43.503Z,4.36
2023-01-19T22:01:43.617Z,4.34
2023-01-19T22:04:43.550Z,4.35
2023-01-19T22:07:43.522Z,4.35
2023-01-19T22:10:43.520Z,4.36
2023-01-19T22:13:43.531Z,4.37
2023-01-19T22:16:43.626Z,4.4
2023-01-19T22:19:43.571Z,4.4
2023-01-19T22:22:43.589Z,4.39
2023-01-19T22:25:43.559Z,4.36
2023-01-19T22:28:43.572Z,4.36
2023-01-19T22:31:43.651Z,4.35
2023-01-19T22:34:43.605Z,4.31
2023-01-19T22:37:43.604Z,4.32
2023-01-19T22:40:43.632Z,4.32
2023-01-19T22:43:43.613Z,4.33
2023-01-19T22:46:43.646Z,4.3
2023-01-19T22:49:43.774Z,4.3
2023-01-19T22:52:43.654Z,4.3
2023-01-19T22:55:43.655Z,4.27
2023-01-19T22:58:43.683Z,4.26
2023-01-19T23:01:43.814Z,4.23
2023-01-19T23:04:43.674Z,4.23
2023-01-19T23:07:43.700Z,4.21
2023-01-19T23:10:43.731Z,4.26
2023-01-19T23:13:43.755Z,4.3
2023-01-19T23:16:43.792Z,4.3
2023-01-19T23:19:43.829Z,4.33
2023-01-19T23:22:43.783Z,4.33
2023-01-19T23:25:43.846Z,4.33
2023-01-19T23:28:43.846Z,4.35
2023-01-19T23:31:43.891Z,4.31
2023-01-19T23:34:43.886Z,4.31
2023-01-19T23:37:43.866Z,4.31
2023-01-19T23:40:43.924Z,4.31
2023-01-19T23:43:43.913Z,4.27
2023-01-19T23:46:43.925Z,4.27
2023-01-19T23:49:43.890Z,4.28
2023-01-19T23:52:43.901Z,4.24
2023-01-19T23:55:43.869Z,4.2
2023-01-19T23:58:43.875Z,4.2
